APL Denmark — A8JX9 — position and weather

sailwx.info

Track history (hours):
 
Tides and Currents Weather Stations Pressure Air Temp Water Temp Dewpoint Dewpoint Depression Visibility Wind Speed Wind Dir Waves Ship Positions

APL Denmark

Last reported at 2018-Jan-19 12:08 UTC. Time now 2018-Jan-20 13:28 UTC.
Position N 31°05' E 122°32'.

Length 277 m; beam 40 m; draft 14 m.

Type: Cargo ship. MMSI: 636018240.

Date/timePositionNaut miles runAvg speedWind from/ knotsBaromVisibWave heightAir tempDewpointWater temp
2018-Jan-19 12:08N 31°05' E 122°32'215.8
2018-Jan-19 12:00N 31°06' E 122°30'510.6
2018-Jan-19 11:30N 31°06' E 122°24'611.8
2018-Jan-19 11:00N 31°07' E 122°17'714.8
2018-Jan-19 10:30N 31°11' E 122°10'714.7
2018-Jan-19 10:00N 31°14' E 122°02'714.8
2018-Jan-19 09:30N 31°16' E 121°54'714.6
2018-Jan-19 09:00N 31°18' E 121°46'912.6
2018-Jan-19 08:19N 31°22' E 121°37'1 3.2
2018-Jan-19 07:52N 31°22' E 121°35'0 0.0
2018-Jan-19 07:27N 31°22' E 121°35'0 0.0
2018-Jan-19 06:57N 31°22' E 121°35'0 0.0
2018-Jan-19 06:21N 31°22' E 121°35'0 0.0
2018-Jan-19 05:57N 31°22' E 121°35'0 0.0
2018-Jan-19 04:30N 31°22' E 121°35'0 0.0
2018-Jan-19 03:57N 31°22' E 121°35'0 0.0
2018-Jan-19 03:09N 31°22' E 121°35'0 0.0
2018-Jan-19 02:51N 31°22' E 121°35'0 0.0
2018-Jan-19 02:27N 31°22' E 121°35'0 0.0
2018-Jan-19 01:03N 31°22' E 121°35'0 0.0
2018-Jan-19 01:00N 31°22' E 121°35'0 0.0
2018-Jan-19 00:21N 31°22' E 121°35'0 0.0
2018-Jan-19 00:00N 31°22' E 121°35'0 0.0
2018-Jan-18 22:18N 31°22' E 121°35'0 0.0
2018-Jan-18 21:54N 31°22' E 121°35'0 0.0
2018-Jan-18 21:09N 31°22' E 121°35'0 0.0
2018-Jan-18 21:00N 31°22' E 121°35'0 0.0
2018-Jan-18 20:30N 31°22' E 121°35'0 0.3
2018-Jan-18 20:00N 31°22' E 121°35'2 3.8
2018-Jan-18 19:30N 31°22' E 121°37'4 8.7
2018-Jan-18 19:00N 31°20' E 121°42'4 8.1
2018-Jan-18 18:30N 31°18' E 121°46'4 6.9
2018-Jan-18 18:00N 31°17' E 121°50'3 6.6
2018-Jan-18 17:29N 31°16' E 121°54'4 8.9
2018-Jan-18 17:00N 31°15' E 121°59'3 5.2
2018-Jan-18 16:30N 31°15' E 122°02'5 5.4
2018-Jan-18 15:35N 31°13' E 122°07'0 6.1
2018-Jan-18 15:30N 31°13' E 122°08'6 8.2
2018-Jan-18 14:49N 31°09' E 122°13'3 9.2
2018-Jan-18 14:28N 31°08' E 122°16'4 8.0
2018-Jan-18 14:00N 31°06' E 122°20'3 5.0
2018-Jan-18 13:30N 31°06' E 122°23'3 4.0
2018-Jan-18 12:38N 31°06' E 122°27'1 6.4
2018-Jan-18 12:30N 31°07' E 122°27'1 1.6
2018-Jan-18 12:00N 31°07' E 122°28'5 7.0
2018-Jan-18 11:15N 31°07' E 122°34'  
2018-Jan-10 20:36N 36°02' E 120°17'211.8
2018-Jan-10 20:28N 36°02' E 120°15'2 0.2
2018-Jan-10 11:13N 36°01' E 120°14'0 0.0
2018-Jan-10 10:57N 36°01' E 120°14'0 0.0
2018-Jan-10 09:46N 36°01' E 120°14'0 0.0
2018-Jan-10 09:28N 36°01' E 120°14'0 0.0
2018-Jan-10 08:52N 36°01' E 120°14'13 1.2
2018-Jan-09 22:00N 35°60' E 120°30'  
Track history (hours):
 
Tides and Currents Weather Stations Pressure Air Temp Water Temp Dewpoint Dewpoint Depression Visibility Wind Speed Wind Dir Waves Ship Positions

APL Denmark

Last reported at 2018-Jan-19 12:08 UTC. Time now 2018-Jan-20 13:28 UTC.
Position N 31°05' E 122°32'.

Length 277 m; beam 40 m; draft 14 m.

Type: Cargo ship. MMSI: 636018240.

Date/timePositionNaut miles runAvg speedWind from/ knotsBaromVisibWave heightAir tempDewpointWater temp
2018-Jan-19 12:08N 31°05' E 122°32'215.8
2018-Jan-19 12:00N 31°06' E 122°30'510.6
2018-Jan-19 11:30N 31°06' E 122°24'611.8
2018-Jan-19 11:00N 31°07' E 122°17'714.8
2018-Jan-19 10:30N 31°11' E 122°10'714.7
2018-Jan-19 10:00N 31°14' E 122°02'714.8
2018-Jan-19 09:30N 31°16' E 121°54'714.6
2018-Jan-19 09:00N 31°18' E 121°46'912.6
2018-Jan-19 08:19N 31°22' E 121°37'1 3.2
2018-Jan-19 07:52N 31°22' E 121°35'0 0.0
2018-Jan-19 07:27N 31°22' E 121°35'0 0.0
2018-Jan-19 06:57N 31°22' E 121°35'0 0.0
2018-Jan-19 06:21N 31°22' E 121°35'0 0.0
2018-Jan-19 05:57N 31°22' E 121°35'0 0.0
2018-Jan-19 04:30N 31°22' E 121°35'0 0.0
2018-Jan-19 03:57N 31°22' E 121°35'0 0.0
2018-Jan-19 03:09N 31°22' E 121°35'0 0.0
2018-Jan-19 02:51N 31°22' E 121°35'0 0.0
2018-Jan-19 02:27N 31°22' E 121°35'0 0.0
2018-Jan-19 01:03N 31°22' E 121°35'0 0.0
2018-Jan-19 01:00N 31°22' E 121°35'0 0.0
2018-Jan-19 00:21N 31°22' E 121°35'0 0.0
2018-Jan-19 00:00N 31°22' E 121°35'0 0.0
2018-Jan-18 22:18N 31°22' E 121°35'0 0.0
2018-Jan-18 21:54N 31°22' E 121°35'0 0.0
2018-Jan-18 21:09N 31°22' E 121°35'0 0.0
2018-Jan-18 21:00N 31°22' E 121°35'0 0.0
2018-Jan-18 20:30N 31°22' E 121°35'0 0.3
2018-Jan-18 20:00N 31°22' E 121°35'2 3.8
2018-Jan-18 19:30N 31°22' E 121°37'4 8.7
2018-Jan-18 19:00N 31°20' E 121°42'4 8.1
2018-Jan-18 18:30N 31°18' E 121°46'4 6.9
2018-Jan-18 18:00N 31°17' E 121°50'3 6.6
2018-Jan-18 17:29N 31°16' E 121°54'4 8.9
2018-Jan-18 17:00N 31°15' E 121°59'3 5.2
2018-Jan-18 16:30N 31°15' E 122°02'5 5.4
2018-Jan-18 15:35N 31°13' E 122°07'0 6.1
2018-Jan-18 15:30N 31°13' E 122°08'6 8.2
2018-Jan-18 14:49N 31°09' E 122°13'3 9.2
2018-Jan-18 14:28N 31°08' E 122°16'4 8.0
2018-Jan-18 14:00N 31°06' E 122°20'3 5.0
2018-Jan-18 13:30N 31°06' E 122°23'3 4.0
2018-Jan-18 12:38N 31°06' E 122°27'1 6.4
2018-Jan-18 12:30N 31°07' E 122°27'1 1.6
2018-Jan-18 12:00N 31°07' E 122°28'5 7.0
2018-Jan-18 11:15N 31°07' E 122°34'  
2018-Jan-10 20:36N 36°02' E 120°17'211.8
2018-Jan-10 20:28N 36°02' E 120°15'2 0.2
2018-Jan-10 11:13N 36°01' E 120°14'0 0.0
2018-Jan-10 10:57N 36°01' E 120°14'0 0.0
2018-Jan-10 09:46N 36°01' E 120°14'0 0.0
2018-Jan-10 09:28N 36°01' E 120°14'0 0.0
2018-Jan-10 08:52N 36°01' E 120°14'13 1.2
2018-Jan-09 22:00N 35°60' E 120°30'  

Dump ship's entire track history